createdAt,value
2022-11-02T00:02:18.319Z,19.85
2022-11-02T00:05:26.788Z,19.92
2022-11-02T00:08:32.366Z,18.92
2022-11-02T00:11:38.140Z,18.10
2022-11-02T00:14:43.757Z,18.30
2022-11-02T00:17:53.347Z,18.80
2022-11-02T00:20:59.347Z,18.10
2022-11-02T00:24:07.680Z,18.15
2022-11-02T00:27:12.984Z,17.80
2022-11-02T00:30:18.413Z,17.48
2022-11-02T00:33:24.106Z,18.13
2022-11-02T00:36:29.633Z,19.42
2022-11-02T00:39:35.229Z,19.60
2022-11-02T00:42:40.669Z,17.67
2022-11-02T00:45:46.023Z,17.58
2022-11-02T00:48:51.547Z,17.27
2022-11-02T00:51:57.142Z,18.70
2022-11-02T00:55:03.946Z,17.92
2022-11-02T00:58:09.555Z,18.13
2022-11-02T01:01:15.609Z,17.65
2022-11-02T01:04:21.333Z,17.88
2022-11-02T01:07:28.593Z,17.45
2022-11-02T01:10:34.164Z,17.13
2022-11-02T01:13:39.731Z,16.67
2022-11-02T01:19:51.963Z,15.70
2022-11-02T01:22:59.533Z,15.95
2022-11-02T01:26:10.896Z,17.50
2022-11-02T01:29:16.007Z,15.65
2022-11-02T01:32:21.544Z,16.80
2022-11-02T01:35:27.081Z,15.13
2022-11-02T01:38:33.713Z,15.35
2022-11-02T01:41:39.317Z,14.15
2022-11-02T01:44:44.883Z,14.55
2022-11-02T01:47:50.101Z,13.20
2022-11-02T01:50:56.223Z,12.30
2022-11-02T01:54:13.334Z,12.85
2022-11-02T01:57:22.067Z,13.23
2022-11-02T02:00:27.609Z,13.80
2022-11-02T02:03:35.513Z,14.32
2022-11-02T02:06:42.278Z,14.15
2022-11-02T02:09:50.453Z,13.98
2022-11-02T02:12:57.680Z,13.93
2022-11-02T02:16:12.326Z,15.13
2022-11-02T02:19:37.764Z,15.25
2022-11-02T02:22:55.128Z,14.02
2022-11-02T02:26:23.504Z,14.48
2022-11-02T02:29:55.673Z,12.98
2022-11-02T02:33:16.504Z,13.13
2022-11-02T02:36:30.106Z,12.65
2022-11-02T02:39:43.740Z,13.60
2022-11-02T02:43:02.481Z,13.35
2022-11-02T02:46:17.274Z,12.27
2022-11-02T02:49:30.381Z,13.82
2022-11-02T02:52:38.115Z,14.75
2022-11-02T02:55:50.079Z,15.27
2022-11-02T03:02:14.394Z,14.50
2022-11-02T03:05:25.986Z,14.50
2022-11-02T03:08:36.465Z,14.30
2022-11-02T03:12:10.005Z,12.50
2022-11-02T03:15:30.874Z,13.63
2022-11-02T03:18:53.563Z,13.52
2022-11-02T03:22:45.572Z,14.27
2022-11-02T03:26:27.705Z,12.13
2022-11-02T03:29:44.095Z,12.05
2022-11-02T03:33:17.570Z,11.65
2022-11-02T03:36:37.293Z,11.93
2022-11-02T03:39:52.732Z,12.73
2022-11-02T03:43:00.953Z,11.98
2022-11-02T03:46:10.623Z,11.57
2022-11-02T03:49:20.785Z,12.43
2022-11-02T03:52:32.066Z,12.13
2022-11-02T03:55:46.806Z,12.88
2022-11-02T03:58:53.130Z,13.40
2022-11-02T04:02:01.765Z,13.50
2022-11-02T04:05:09.262Z,13.52
2022-11-02T04:08:23.197Z,12.70
2022-11-02T04:11:55.644Z,12.10
2022-11-02T04:15:01.996Z,13.35
2022-11-02T04:18:28.150Z,13.43
2022-11-02T04:21:34.596Z,13.60
2022-11-02T04:25:01.634Z,12.32
2022-11-02T04:28:10.211Z,13.95
2022-11-02T04:31:28.889Z,12.57
2022-11-02T04:34:35.008Z,12.55
2022-11-02T04:38:02.079Z,14.00
2022-11-02T04:41:34.411Z,13.32
2022-11-02T04:44:40.939Z,12.82
2022-11-02T04:48:06.372Z,11.68
2022-11-02T04:51:14.060Z,11.93
2022-11-02T04:54:20.060Z,12.85
2022-11-02T04:57:31.193Z,12.73
2022-11-02T05:00:41.089Z,12.75
2022-11-02T05:03:52.639Z,11.13
2022-11-02T05:07:01.705Z,12.60
2022-11-02T05:10:12.640Z,13.98
2022-11-02T05:13:19.648Z,12.77
2022-11-02T05:16:26.688Z,12.50
2022-11-02T05:19:33.134Z,12.32
2022-11-02T05:22:45.152Z,12.40
2022-11-02T05:25:57.893Z,11.95
2022-11-02T05:29:04.586Z,12.35
2022-11-02T05:32:12.399Z,11.68
2022-11-02T05:35:18.331Z,12.20
2022-11-02T05:38:25.375Z,11.10
2022-11-02T05:41:31.568Z,10.93
2022-11-02T05:44:39.019Z,10.65
2022-11-02T05:47:44.831Z,12.95
2022-11-02T05:50:55.364Z,11.68
2022-11-02T05:54:01.522Z,11.67
2022-11-02T05:57:07.357Z,11.13
2022-11-02T06:00:13.743Z,10.77
2022-11-02T06:03:20.335Z,11.70
2022-11-02T06:06:26.307Z,10.88
2022-11-02T06:09:32.281Z,11.48
2022-11-02T06:12:38.198Z,11.45
2022-11-02T06:15:44.083Z,10.40
2022-11-02T06:18:50.123Z,9.90
2022-11-02T06:21:56.097Z,10.40
2022-11-02T06:25:01.631Z,11.57
2022-11-02T06:28:07.551Z,11.95
2022-11-02T06:31:16.672Z,12.57
2022-11-02T06:34:22.928Z,11.88
2022-11-02T06:37:29.167Z,11.18
2022-11-02T06:40:35.564Z,12.23
2022-11-02T06:43:41.546Z,11.65
2022-11-02T06:46:47.698Z,12.07
2022-11-02T06:49:53.756Z,11.98
2022-11-02T06:52:59.579Z,11.23
2022-11-02T06:56:05.645Z,10.20
2022-11-02T06:59:11.483Z,10.20
2022-11-02T07:02:17.294Z,11.05
2022-11-02T07:05:22.753Z,11.32
2022-11-02T07:08:29.998Z,10.98
2022-11-02T07:11:36.254Z,12.38
2022-11-02T07:14:42.034Z,10.82
2022-11-02T07:17:48.062Z,12.30
2022-11-02T07:20:53.792Z,11.45
2022-11-02T07:23:59.673Z,11.52
2022-11-02T07:27:05.669Z,11.85
2022-11-02T07:30:11.387Z,11.95
2022-11-02T07:33:17.156Z,10.13
2022-11-02T07:36:22.935Z,11.10
2022-11-02T07:39:28.891Z,11.55
2022-11-02T07:42:34.601Z,9.95
2022-11-02T07:45:43.347Z,11.60
2022-11-02T07:48:49.209Z,12.23
2022-11-02T07:51:57.069Z,10.82
2022-11-02T07:55:03.067Z,11.10
2022-11-02T07:58:14.238Z,12.07
2022-11-02T08:01:20.264Z,10.25
2022-11-02T08:04:25.757Z,12.20
2022-11-02T08:07:31.843Z,11.00
2022-11-02T08:10:40.418Z,11.00
2022-11-02T08:13:46.373Z,11.15
2022-11-02T08:16:52.773Z,11.45
2022-11-02T08:19:58.910Z,11.52
2022-11-02T08:23:05.557Z,12.60
2022-11-02T08:26:10.985Z,12.40
2022-11-02T08:29:16.060Z,13.13
2022-11-02T08:32:21.716Z,13.05
2022-11-02T08:35:27.112Z,13.23
2022-11-02T08:38:32.998Z,13.07
2022-11-02T08:41:38.716Z,14.23
2022-11-02T08:44:44.165Z,13.77
2022-11-02T08:47:49.534Z,15.30
2022-11-02T08:50:56.605Z,14.85
2022-11-02T08:54:01.755Z,15.00
2022-11-02T08:57:07.486Z,16.55
2022-11-02T09:00:14.551Z,14.73
2022-11-02T09:03:26.194Z,15.95
2022-11-02T09:06:32.731Z,15.52
2022-11-02T09:09:38.607Z,16.30
2022-11-02T09:12:44.036Z,17.58
2022-11-02T09:15:55.010Z,16.40
2022-11-02T09:19:00.487Z,16.77
2022-11-02T09:22:05.975Z,16.88
2022-11-02T09:25:13.009Z,15.95
2022-11-02T09:28:18.877Z,16.67
2022-11-02T09:31:25.203Z,15.30
2022-11-02T09:34:30.525Z,16.55
2022-11-02T09:37:36.836Z,17.00
2022-11-02T09:41:02.827Z,17.60
2022-11-02T09:44:47.385Z,16.38
2022-11-02T09:48:16.827Z,17.90
2022-11-02T09:54:50.366Z,16.63
2022-11-02T09:58:06.539Z,17.85
2022-11-02T10:01:29.523Z,17.90
2022-11-02T10:05:23.141Z,18.23
2022-11-02T10:08:46.995Z,20.10
2022-11-02T10:12:13.666Z,19.60
2022-11-02T10:15:24.316Z,19.70
2022-11-02T10:18:31.567Z,18.52
2022-11-02T10:21:39.599Z,20.42
2022-11-02T10:24:48.390Z,19.00
2022-11-02T10:28:04.903Z,20.58
2022-11-02T10:31:27.610Z,19.90
2022-11-02T10:34:34.783Z,20.10
2022-11-02T10:37:46.192Z,22.48
2022-11-02T10:41:03.477Z,22.58
2022-11-02T10:44:29.992Z,22.27
2022-11-02T10:47:54.811Z,23.52
2022-11-02T10:51:12.663Z,21.42
2022-11-02T10:54:22.823Z,21.05
2022-11-02T10:57:40.013Z,17.67
2022-11-02T11:00:46.222Z,16.02
2022-11-02T11:04:03.621Z,16.77
2022-11-02T11:07:25.968Z,16.58
2022-11-02T11:10:39.021Z,15.40
2022-11-02T11:20:56.652Z,15.40
2022-11-02T11:24:35.653Z,16.73
2022-11-02T11:28:00.297Z,15.98
2022-11-02T11:31:16.224Z,17.13
2022-11-02T11:34:44.143Z,14.38
2022-11-02T11:37:57.492Z,15.10
2022-11-02T11:41:04.796Z,14.63
2022-11-02T11:44:15.067Z,13.10
2022-11-02T11:47:27.218Z,14.93
2022-11-02T11:50:34.250Z,15.10
2022-11-02T11:53:40.048Z,16.02
2022-11-02T11:56:46.894Z,15.18
2022-11-02T11:59:53.396Z,15.35
2022-11-02T12:03:13.728Z,15.10
2022-11-02T12:06:34.000Z,15.93
2022-11-02T12:10:07.219Z,15.80
2022-11-02T12:13:42.477Z,15.30
2022-11-02T12:17:28.775Z,14.23
2022-11-02T12:21:10.776Z,17.17
2022-11-02T12:24:40.675Z,16.40
2022-11-02T12:28:09.949Z,16.42
2022-11-02T12:31:36.846Z,16.80
2022-11-02T12:35:30.567Z,16.35
2022-11-02T12:38:54.552Z,16.40
2022-11-02T12:42:15.584Z,16.60
2022-11-02T12:45:26.014Z,16.02
2022-11-02T12:48:43.379Z,15.05
2022-11-02T12:51:57.161Z,16.33
2022-11-02T12:55:06.448Z,16.48
2022-11-02T12:58:28.649Z,16.95
2022-11-02T13:01:44.715Z,16.65
2022-11-02T13:04:59.519Z,18.10
2022-11-02T13:08:16.929Z,17.27
2022-11-02T13:11:45.357Z,17.10
2022-11-02T13:14:53.391Z,16.77
2022-11-02T13:18:18.171Z,18.33
2022-11-02T13:21:42.783Z,17.83
2022-11-02T13:24:54.472Z,17.80
2022-11-02T13:28:28.644Z,16.70
2022-11-02T13:31:38.020Z,16.95
2022-11-02T13:34:50.184Z,17.02
2022-11-02T13:38:10.799Z,17.27
2022-11-02T13:41:41.147Z,16.88
2022-11-02T13:45:15.043Z,16.00
2022-11-02T13:48:42.214Z,16.38
2022-11-02T13:51:50.088Z,16.70
2022-11-02T13:55:01.413Z,15.57
2022-11-02T13:58:07.709Z,15.90
2022-11-02T14:01:18.463Z,15.68
2022-11-02T14:04:25.397Z,15.30
2022-11-02T14:07:41.776Z,14.07
2022-11-02T14:11:10.859Z,15.95
2022-11-02T14:14:20.969Z,14.50
2022-11-02T14:17:26.400Z,12.95
2022-11-02T14:20:37.621Z,12.93
2022-11-02T14:23:43.196Z,13.88
2022-11-02T14:26:57.250Z,14.30
2022-11-02T14:30:03.249Z,13.32
2022-11-02T14:33:30.261Z,14.60
2022-11-02T14:36:41.743Z,13.98
2022-11-02T14:40:02.966Z,14.25
2022-11-02T14:43:22.207Z,12.93
2022-11-02T14:47:02.994Z,13.43
2022-11-02T14:50:21.252Z,12.85
2022-11-02T14:53:30.087Z,14.00
2022-11-02T14:57:19.505Z,14.13
2022-11-02T15:00:28.463Z,12.30
2022-11-02T15:03:41.587Z,12.50
2022-11-02T15:07:06.831Z,12.35
2022-11-02T15:10:18.345Z,12.18
2022-11-02T15:13:36.845Z,12.18
2022-11-02T15:16:42.390Z,13.50
2022-11-02T15:19:54.126Z,14.02
2022-11-02T15:26:56.247Z,12.27
2022-11-02T15:30:03.440Z,12.75
2022-11-02T15:33:22.969Z,14.32
2022-11-02T15:36:34.546Z,14.70
2022-11-02T15:39:40.420Z,12.55
2022-11-02T15:43:01.223Z,13.00
2022-11-02T15:46:28.458Z,13.70
2022-11-02T15:49:52.730Z,12.55
2022-11-02T15:53:24.049Z,13.57
2022-11-02T15:56:48.490Z,13.05
2022-11-02T16:00:12.647Z,12.75
2022-11-02T16:03:18.585Z,12.27
2022-11-02T16:06:39.585Z,14.45
2022-11-02T16:09:46.892Z,14.00
2022-11-02T16:13:01.422Z,13.40
2022-11-02T16:16:08.493Z,14.13
2022-11-02T16:19:22.614Z,13.13
2022-11-02T16:22:28.238Z,12.38
2022-11-02T16:25:39.901Z,13.23
2022-11-02T16:28:50.377Z,14.10
2022-11-02T16:31:56.931Z,12.60
2022-11-02T16:35:02.691Z,14.00
2022-11-02T16:38:09.772Z,13.40
2022-11-02T16:41:16.650Z,13.63
2022-11-02T16:44:28.049Z,13.45
2022-11-02T16:47:41.304Z,13.18
2022-11-02T16:51:10.448Z,12.77
2022-11-02T16:54:46.880Z,13.20
2022-11-02T16:57:52.663Z,13.27
2022-11-02T17:01:02.231Z,14.18
2022-11-02T17:04:30.009Z,16.65
2022-11-02T17:07:42.273Z,18.20
2022-11-02T17:10:48.008Z,18.85
2022-11-02T17:13:57.203Z,18.52
2022-11-02T17:17:06.458Z,18.00
2022-11-02T17:20:12.004Z,17.95
2022-11-02T17:23:36.141Z,15.98
2022-11-02T17:26:42.346Z,16.25
2022-11-02T17:29:48.114Z,16.83
2022-11-02T17:32:53.787Z,15.85
2022-11-02T17:36:09.089Z,17.15
2022-11-02T17:39:16.410Z,16.50
2022-11-02T17:42:40.452Z,15.70
2022-11-02T17:45:45.604Z,15.65
2022-11-02T17:48:51.108Z,15.85
2022-11-02T17:51:56.603Z,15.43
2022-11-02T17:55:01.982Z,16.10
2022-11-02T17:58:07.770Z,15.65
2022-11-02T18:01:14.908Z,16.50
2022-11-02T18:04:20.778Z,18.30
2022-11-02T18:07:25.905Z,16.85
2022-11-02T18:10:36.974Z,22.08
2022-11-02T18:13:42.321Z,22.77
2022-11-02T18:16:48.830Z,17.88
2022-11-02T18:19:54.338Z,16.10
2022-11-02T18:23:01.333Z,16.35
2022-11-02T18:26:08.255Z,17.85
2022-11-02T18:29:13.780Z,16.05
2022-11-02T18:32:19.575Z,17.50
2022-11-02T18:35:25.654Z,17.75
2022-11-02T18:38:31.527Z,16.38
2022-11-02T18:41:37.838Z,17.08
2022-11-02T18:44:43.486Z,15.43
2022-11-02T18:47:49.238Z,17.48
2022-11-02T18:50:54.612Z,17.52
2022-11-02T18:54:02.563Z,20.77
2022-11-02T18:57:07.979Z,18.80
2022-11-02T19:00:14.338Z,17.75
2022-11-02T19:03:19.520Z,18.75
2022-11-02T19:06:44.749Z,18.75
2022-11-02T19:09:49.869Z,17.17
2022-11-02T19:12:55.331Z,18.50
2022-11-02T19:16:00.576Z,19.35
2022-11-02T19:19:06.012Z,20.83
2022-11-02T19:22:14.493Z,19.63
2022-11-02T19:25:19.981Z,18.67
2022-11-02T19:28:25.330Z,17.90
2022-11-02T19:31:30.862Z,17.35
2022-11-02T19:34:37.358Z,17.58
2022-11-02T19:37:42.497Z,17.10
2022-11-02T19:40:48.022Z,16.02
2022-11-02T19:43:53.727Z,15.98
2022-11-02T19:46:59.429Z,15.27
2022-11-02T19:50:05.948Z,17.42
2022-11-02T19:53:11.205Z,17.00
2022-11-02T19:56:18.765Z,17.38
2022-11-02T19:59:24.385Z,19.80
2022-11-02T20:02:30.170Z,17.75
2022-11-02T20:05:35.736Z,18.52
2022-11-02T20:08:41.460Z,17.30
2022-11-02T20:11:48.592Z,15.80
2022-11-02T20:14:54.384Z,16.08
2022-11-02T20:18:18.271Z,17.20
2022-11-02T20:21:33.392Z,17.67
2022-11-02T20:24:42.686Z,18.02
2022-11-02T20:27:50.020Z,17.52
2022-11-02T20:30:57.121Z,17.98
2022-11-02T20:34:05.688Z,19.02
2022-11-02T20:37:12.494Z,18.13
2022-11-02T20:40:19.836Z,16.75
2022-11-02T20:43:27.495Z,17.30
2022-11-02T20:46:38.224Z,17.58
2022-11-02T20:49:51.233Z,18.17
2022-11-02T20:53:00.339Z,19.08
2022-11-02T20:56:08.269Z,18.02
2022-11-02T20:59:14.942Z,18.20
2022-11-02T21:02:24.124Z,19.17
2022-11-02T21:05:32.040Z,19.10
2022-11-02T21:08:38.874Z,18.45
2022-11-02T21:12:04.600Z,18.15
2022-11-02T21:15:12.408Z,16.52
2022-11-02T21:18:19.800Z,16.80
2022-11-02T21:21:26.898Z,17.80
2022-11-02T21:24:33.985Z,18.63
2022-11-02T21:27:40.923Z,18.10
2022-11-02T21:30:48.238Z,17.67
2022-11-02T21:33:53.965Z,18.30
2022-11-02T21:36:59.246Z,17.35
2022-11-02T21:40:05.573Z,17.33
2022-11-02T21:43:11.194Z,18.70
2022-11-02T21:46:16.895Z,17.55
2022-11-02T21:49:22.951Z,16.35
2022-11-02T21:52:29.225Z,17.73
2022-11-02T21:55:34.602Z,17.13
2022-11-02T21:58:44.837Z,16.83
2022-11-02T22:01:53.043Z,17.17
2022-11-02T22:04:59.221Z,15.73
2022-11-02T22:08:23.191Z,19.40
2022-11-02T22:11:29.412Z,17.63
2022-11-02T22:14:34.802Z,19.85
2022-11-02T22:17:55.705Z,18.88
2022-11-02T22:21:01.537Z,18.95
2022-11-02T22:24:08.108Z,19.10
2022-11-02T22:27:13.287Z,17.92
2022-11-02T22:30:18.821Z,18.27
2022-11-02T22:33:26.481Z,18.13
2022-11-02T22:36:33.829Z,18.20
2022-11-02T22:39:39.309Z,18.52
2022-11-02T22:42:44.976Z,16.98
2022-11-02T22:45:50.627Z,16.92
2022-11-02T22:48:58.404Z,18.35
2022-11-02T22:52:03.967Z,18.52
2022-11-02T22:55:11.040Z,19.95
2022-11-02T22:58:16.550Z,18.52
2022-11-02T23:01:24.827Z,19.80
2022-11-02T23:04:30.452Z,20.30
2022-11-02T23:07:36.295Z,20.33
2022-11-02T23:11:00.723Z,18.45
2022-11-02T23:14:12.151Z,20.00
2022-11-02T23:17:17.518Z,19.67
2022-11-02T23:20:22.967Z,19.35
2022-11-02T23:23:47.267Z,19.08
2022-11-02T23:26:53.586Z,20.92
2022-11-02T23:30:17.767Z,20.00
2022-11-02T23:33:24.781Z,19.15
2022-11-02T23:36:30.016Z,21.23
2022-11-02T23:39:50.878Z,18.92
2022-11-02T23:42:56.494Z,19.58
2022-11-02T23:46:02.249Z,21.42
2022-11-02T23:49:08.422Z,19.02
2022-11-02T23:52:32.517Z,20.02
2022-11-02T23:55:56.138Z,20.60
2022-11-02T23:59:07.703Z,18.85
